Time,TemperatureF,DewpointF,PressureIn,WindDirection,WindDirectionDegrees,WindSpeedMPH,WindSpeedGustMPH,Humidity,HourlyPrecipIn,Conditions,Clouds,dailyrainin,SoftwareType,DateUTC
2013-04-29 00:08:00,60.4,38.5,29.91,ENE,60,1.0,5.4,44,0.00,,,-99.99,FreeWX 2.04,2013-04-29 04:08:00,
2013-04-29 00:18:00,60.1,38.1,29.91,North,-999,0.0,3.6,44,0.00,,,-99.99,FreeWX 2.04,2013-04-29 04:18:00,
2013-04-29 00:28:00,59.5,38.1,29.91,North,-999,0.0,0.0,45,0.00,,,-99.99,FreeWX 2.04,2013-04-29 04:28:00,
2013-04-29 00:38:00,59.2,38.5,29.91,North,-999,0.0,2.7,46,0.00,,,-99.99,FreeWX 2.04,2013-04-29 04:38:00,
2013-04-29 00:48:00,59.0,38.8,29.91,North,-999,0.0,4.0,47,0.00,,,-99.99,FreeWX 2.04,2013-04-29 04:48:00,
2013-04-29 00:58:00,58.6,39.6,29.91,NW,323,1.0,4.5,49,0.00,,,-99.99,FreeWX 2.04,2013-04-29 04:58:00,
2013-04-29 01:08:00,58.5,39.9,29.91,North,-999,0.0,4.0,50,0.04,,,-99.99,FreeWX 2.04,2013-04-29 05:08:00,
2013-04-29 01:18:00,58.3,41.2,29.91,NNW,343,1.0,4.5,53,0.04,,,-99.99,FreeWX 2.04,2013-04-29 05:18:00,
2013-04-29 01:28:00,58.1,43.9,29.91,NNW,342,2.0,5.4,59,0.04,,,-99.99,FreeWX 2.04,2013-04-29 05:28:00,
2013-04-29 01:38:00,57.9,45.0,29.91,NNW,339,3.0,5.8,62,0.04,,,-99.99,FreeWX 2.04,2013-04-29 05:38:00,
2013-04-29 01:48:00,57.7,44.8,29.91,North,-999,0.0,4.5,62,0.04,,,-99.99,FreeWX 2.04,2013-04-29 05:48:00,
2013-04-29 01:58:00,57.6,44.6,29.91,North,-999,0.0,0.0,62,0.04,,,-99.99,FreeWX 2.04,2013-04-29 05:58:00,
2013-04-29 02:08:00,57.6,44.6,29.91,North,-999,0.0,0.0,62,0.00,,,-99.99,FreeWX 2.04,2013-04-29 06:08:00,
2013-04-29 02:18:00,57.6,44.6,29.91,North,-999,0.0,2.7,62,0.00,,,-99.99,FreeWX 2.04,2013-04-29 06:18:00,
2013-04-29 02:28:00,57.6,45.5,29.91,North,-999,0.0,3.6,64,0.00,,,-99.99,FreeWX 2.04,2013-04-29 06:28:00,
2013-04-29 02:38:00,57.4,45.3,29.91,NE,45,1.0,5.4,64,0.00,,,-99.99,FreeWX 2.04,2013-04-29 06:38:00,
2013-04-29 02:48:00,57.4,45.3,29.91,North,-999,0.0,3.1,64,0.00,,,-99.99,FreeWX 2.04,2013-04-29 06:48:00,
2013-04-29 02:58:00,57.2,45.1,29.91,North,-999,0.0,4.0,64,0.00,,,-99.99,FreeWX 2.04,2013-04-29 06:58:00,
2013-04-29 03:08:00,57.4,45.3,29.91,North,-999,0.0,0.0,64,0.00,,,-99.99,FreeWX 2.04,2013-04-29 07:08:00,
2013-04-29 03:18:00,57.2,45.5,29.91,North,-999,0.0,3.1,65,0.00,,,-99.99,FreeWX 2.04,2013-04-29 07:18:00,
2013-04-29 03:28:00,57.2,45.9,29.91,North,-999,0.0,3.6,66,0.00,,,-99.99,FreeWX 2.04,2013-04-29 07:28:00,
2013-04-29 03:38:00,57.2,45.9,29.91,North,-999,0.0,3.1,66,0.00,,,-99.99,FreeWX 2.04,2013-04-29 07:38:00,
2013-04-29 03:48:00,57.2,45.9,29.91,North,-999,0.0,0.0,66,0.00,,,-99.99,FreeWX 2.04,2013-04-29 07:48:00,
2013-04-29 03:58:00,57.2,45.9,29.91,North,-999,0.0,0.0,66,0.00,,,-99.99,FreeWX 2.04,2013-04-29 07:58:00,
2013-04-29 04:08:00,57.0,45.9,29.94,North,-999,0.0,0.0,66,0.00,,,-99.99,FreeWX 2.04,2013-04-29 08:08:00,
2013-04-29 04:18:00,56.8,45.7,29.94,North,-999,0.0,3.1,66,0.00,,,-99.99,FreeWX 2.04,2013-04-29 08:18:00,
2013-04-29 04:28:00,56.8,45.7,29.94,North,-999,0.0,0.0,66,0.00,,,-99.99,FreeWX 2.04,2013-04-29 08:28:00,
2013-04-29 04:38:00,56.8,45.7,29.94,North,-999,0.0,3.1,66,0.00,,,-99.99,FreeWX 2.04,2013-04-29 08:38:00,
2013-04-29 04:48:00,56.7,45.5,29.94,North,-999,0.0,3.1,66,0.00,,,-99.99,FreeWX 2.04,2013-04-29 08:48:00,
2013-04-29 04:58:00,56.7,45.5,29.94,North,-999,0.0,4.0,66,0.00,,,-99.99,FreeWX 2.04,2013-04-29 08:58:00,
2013-04-29 05:08:00,56.7,45.5,29.94,North,-999,0.0,3.1,66,0.00,,,-99.99,FreeWX 2.04,2013-04-29 09:08:00,
2013-04-29 05:18:00,56.7,45.9,29.94,North,-999,0.0,0.0,67,0.00,,,-99.99,FreeWX 2.04,2013-04-29 09:18:00,
2013-04-29 05:28:00,56.5,45.7,29.94,North,-999,0.0,0.0,67,0.00,,,-99.99,FreeWX 2.04,2013-04-29 09:28:00,
2013-04-29 05:38:00,56.5,45.7,29.94,North,-999,0.0,0.0,67,0.00,,,-99.99,FreeWX 2.04,2013-04-29 09:38:00,
2013-04-29 05:48:00,56.7,45.9,29.94,North,-999,0.0,0.0,67,0.00,,,-99.99,FreeWX 2.04,2013-04-29 09:48:00,
2013-04-29 05:58:00,56.5,45.7,29.94,North,-999,0.0,0.0,67,0.00,,,-99.99,FreeWX 2.04,2013-04-29 09:58:00,
2013-04-29 06:08:00,56.5,46.0,29.94,North,-999,0.0,3.6,68,0.00,,,-99.99,FreeWX 2.04,2013-04-29 10:08:00,
2013-04-29 06:18:00,56.5,46.0,29.94,North,-999,0.0,0.0,68,0.00,,,-99.99,FreeWX 2.04,2013-04-29 10:18:00,
2013-04-29 06:28:00,56.5,46.0,29.94,North,-999,0.0,2.7,68,0.00,,,-99.99,FreeWX 2.04,2013-04-29 10:28:00,
2013-04-29 06:38:00,56.3,45.9,29.94,North,-999,0.0,0.0,68,0.00,,,-99.99,FreeWX 2.04,2013-04-29 10:38:00,
2013-04-29 06:48:00,56.3,45.9,29.97,North,-999,0.0,0.0,68,0.00,,,-99.99,FreeWX 2.04,2013-04-29 10:48:00,
2013-04-29 06:58:00,56.5,46.0,29.97,North,-999,0.0,0.0,68,0.00,,,-99.99,FreeWX 2.04,2013-04-29 10:58:00,
2013-04-29 07:08:00,56.5,46.4,29.97,North,-999,0.0,0.0,69,0.00,,,-99.99,FreeWX 2.04,2013-04-29 11:08:00,
2013-04-29 07:18:00,56.5,46.4,29.97,North,-999,0.0,0.0,69,0.00,,,-99.99,FreeWX 2.04,2013-04-29 11:18:00,
2013-04-29 07:28:00,56.7,46.6,29.97,North,-999,0.0,4.0,69,0.00,,,-99.99,FreeWX 2.04,2013-04-29 11:28:00,
2013-04-29 07:38:00,56.7,46.9,29.97,North,-999,0.0,2.7,70,0.00,,,-99.99,FreeWX 2.04,2013-04-29 11:38:00,
2013-04-29 07:48:00,56.7,46.9,29.97,North,-999,0.0,4.0,70,0.00,,,-99.99,FreeWX 2.04,2013-04-29 11:48:00,
2013-04-29 07:58:00,56.8,47.1,29.97,North,-999,0.0,0.0,70,0.00,,,-99.99,FreeWX 2.04,2013-04-29 11:58:00,
2013-04-29 08:08:00,57.2,47.5,29.97,North,-999,0.0,0.0,70,0.00,,,-99.99,FreeWX 2.04,2013-04-29 12:08:00,
2013-04-29 08:18:00,57.2,47.5,29.97,North,-999,0.0,0.0,70,0.00,,,-99.99,FreeWX 2.04,2013-04-29 12:18:00,
2013-04-29 08:28:00,58.1,48.7,29.97,North,-999,0.0,0.0,71,0.00,,,-99.99,FreeWX 2.04,2013-04-29 12:28:00,
2013-04-29 08:38:00,58.5,48.7,30.00,NNE,26,1.0,6.3,70,0.00,,,-99.99,FreeWX 2.04,2013-04-29 12:38:00,
2013-04-29 08:48:00,58.5,48.0,30.00,North,-999,0.0,4.5,68,0.00,,,-99.99,FreeWX 2.04,2013-04-29 12:48:00,
2013-04-29 08:58:00,58.5,47.5,30.00,East,100,1.0,4.9,67,0.00,,,-99.99,FreeWX 2.04,2013-04-29 12:58:00,
2013-04-29 09:08:00,60.1,49.5,29.97,North,-999,0.0,4.0,68,0.00,,,-99.99,FreeWX 2.04,2013-04-29 13:08:00,
2013-04-29 09:19:00,60.6,47.5,29.97,NE,45,1.0,4.9,62,0.00,,,-99.99,FreeWX 2.04,2013-04-29 13:19:00,
2013-04-29 09:29:00,60.4,45.5,29.97,North,-999,0.0,5.4,58,0.00,,,-99.99,FreeWX 2.04,2013-04-29 13:29:00,
2013-04-29 09:39:00,60.6,45.3,30.00,North,-999,0.0,4.5,57,0.00,,,-99.99,FreeWX 2.04,2013-04-29 13:39:00,
2013-04-29 09:49:00,61.2,42.4,29.97,NE,35,2.0,6.7,50,0.00,,,-99.99,FreeWX 2.04,2013-04-29 13:49:00,
2013-04-29 09:59:00,61.9,41.9,29.97,North,9,3.0,6.3,48,0.00,,,-99.99,FreeWX 2.04,2013-04-29 13:59:00,
2013-04-29 10:09:00,62.1,41.0,29.97,NNE,30,2.0,5.8,46,0.00,,,-99.99,FreeWX 2.04,2013-04-29 14:09:00,
2013-04-29 10:19:00,62.2,40.6,30.00,NE,38,2.0,5.4,45,0.00,,,-99.99,FreeWX 2.04,2013-04-29 14:19:00,
2013-04-29 10:29:00,63.0,41.9,30.00,NNE,21,2.0,6.9,46,0.00,,,-99.99,FreeWX 2.04,2013-04-29 14:29:00,
2013-04-29 10:39:00,64.8,38.5,30.00,NNE,19,3.0,7.4,38,0.00,,,-99.99,FreeWX 2.04,2013-04-29 14:39:00,
2013-04-29 10:49:00,67.1,38.5,30.00,North,0,3.0,7.4,35,0.00,,,-99.99,FreeWX 2.04,2013-04-29 14:49:00,
2013-04-29 10:59:00,66.6,36.5,30.00,NNE,16,2.0,6.9,33,0.00,,,-99.99,FreeWX 2.04,2013-04-29 14:59:00,
2013-04-29 11:09:00,66.0,36.1,30.00,NE,47,3.0,6.9,33,0.00,,,-99.99,FreeWX 2.04,2013-04-29 15:09:00,
2013-04-29 11:19:00,66.2,33.8,30.00,North,1,3.0,8.3,30,0.00,,,-99.99,FreeWX 2.04,2013-04-29 15:19:00,
2013-04-29 11:29:00,66.0,35.2,30.00,ENE,64,3.0,6.3,32,0.00,,,-99.99,FreeWX 2.04,2013-04-29 15:29:00,
2013-04-29 11:39:00,66.4,36.3,30.00,ENE,61,3.0,6.3,33,0.00,,,-99.99,FreeWX 2.04,2013-04-29 15:39:00,
2013-04-29 11:49:00,67.5,35.8,30.00,North,9,4.0,10.1,31,0.00,,,-99.99,FreeWX 2.04,2013-04-29 15:49:00,
2013-04-29 11:59:00,67.6,36.0,30.00,North,1,3.0,7.8,31,0.00,,,-99.99,FreeWX 2.04,2013-04-29 15:59:00,
2013-04-29 12:09:00,67.5,33.3,30.00,East,90,3.0,6.9,28,0.00,,,-99.99,FreeWX 2.04,2013-04-29 16:09:00,
2013-04-29 12:19:00,67.1,31.1,30.00,ESE,119,3.0,4.9,26,0.00,,,-99.99,FreeWX 2.04,2013-04-29 16:19:00,
2013-04-29 12:29:00,67.3,31.3,30.00,North,355,1.0,6.3,26,0.00,,,-99.99,FreeWX 2.04,2013-04-29 16:29:00,
2013-04-29 12:39:00,67.1,32.0,30.00,NE,34,2.0,5.4,27,0.00,,,-99.99,FreeWX 2.04,2013-04-29 16:39:00,
2013-04-29 12:49:00,67.1,32.0,30.00,SE,144,2.0,4.5,27,0.00,,,-99.99,FreeWX 2.04,2013-04-29 16:49:00,
2013-04-29 12:59:00,67.3,31.3,30.00,ESE,123,2.0,4.9,26,0.00,,,-99.99,FreeWX 2.04,2013-04-29 16:59:00,
2013-04-29 13:09:00,67.8,31.6,30.00,East,84,2.0,4.9,26,0.00,,,-99.99,FreeWX 2.04,2013-04-29 17:09:00,
2013-04-29 13:19:00,67.8,30.7,30.00,ESE,122,2.0,4.9,25,0.00,,,-99.99,FreeWX 2.04,2013-04-29 17:19:00,
2013-04-29 13:29:00,67.3,30.2,30.00,East,89,2.0,5.4,25,0.00,,,-99.99,FreeWX 2.04,2013-04-29 17:29:00,
2013-04-29 13:39:00,66.0,31.1,30.00,ENE,68,2.0,4.9,27,0.00,,,-99.99,FreeWX 2.04,2013-04-29 17:39:00,
2013-04-29 13:49:00,65.7,33.4,30.00,North,-999,0.0,4.0,30,0.00,,,-99.99,FreeWX 2.04,2013-04-29 17:49:00,
2013-04-29 13:59:00,65.5,34.9,30.00,North,2,2.0,5.8,32,0.00,,,-99.99,FreeWX 2.04,2013-04-29 17:59:00,
2013-04-29 14:09:00,65.5,35.6,30.00,North,-999,0.0,4.5,33,0.00,,,-99.99,FreeWX 2.04,2013-04-29 18:09:00,
2013-04-29 14:19:00,65.7,35.8,30.00,WSW,239,1.0,4.5,33,0.00,,,-99.99,FreeWX 2.04,2013-04-29 18:19:00,
2013-04-29 14:29:00,66.0,36.1,30.00,North,-999,0.0,3.6,33,0.00,,,-99.99,FreeWX 2.04,2013-04-29 18:29:00,
2013-04-29 14:39:00,66.9,36.1,29.97,East,97,1.0,5.4,32,0.00,,,-99.99,FreeWX 2.04,2013-04-29 18:39:00,
2013-04-29 14:49:00,67.8,33.4,29.97,North,355,3.0,5.8,28,0.00,,,-99.99,FreeWX 2.04,2013-04-29 18:49:00,
2013-04-29 14:59:00,67.8,32.5,29.97,North,-999,0.0,4.9,27,0.00,,,-99.99,FreeWX 2.04,2013-04-29 18:59:00,
2013-04-29 15:09:00,67.8,32.5,29.97,SE,125,1.0,4.5,27,0.00,,,-99.99,FreeWX 2.04,2013-04-29 19:09:00,
2013-04-29 15:19:00,67.8,31.6,29.97,North,0,1.0,3.6,26,0.00,,,-99.99,FreeWX 2.04,2013-04-29 19:19:00,
2013-04-29 15:29:00,67.8,29.7,29.97,NNE,17,2.0,4.9,24,0.00,,,-99.99,FreeWX 2.04,2013-04-29 19:29:00,
2013-04-29 15:39:00,67.6,31.5,29.97,North,354,1.0,4.5,26,0.00,,,-99.99,FreeWX 2.04,2013-04-29 19:39:00,
2013-04-29 15:49:00,67.6,31.5,29.97,North,-999,0.0,4.0,26,0.00,,,-99.99,FreeWX 2.04,2013-04-29 19:49:00,
2013-04-29 15:59:00,67.1,31.1,29.97,North,-999,0.0,0.0,26,0.00,,,-99.99,FreeWX 2.04,2013-04-29 19:59:00,
2013-04-29 16:09:00,66.7,31.6,29.97,North,-999,0.0,0.0,27,0.00,,,-99.99,FreeWX 2.04,2013-04-29 20:09:00,
2013-04-29 16:19:00,66.4,33.1,29.97,North,-999,0.0,5.8,29,0.00,,,-99.99,FreeWX 2.04,2013-04-29 20:19:00,
2013-04-29 16:29:00,65.3,32.2,29.97,North,3,2.0,5.8,29,0.00,,,-99.99,FreeWX 2.04,2013-04-29 20:29:00,
2013-04-29 16:39:00,64.9,34.3,29.97,North,353,1.0,4.5,32,0.00,,,-99.99,FreeWX 2.04,2013-04-29 20:39:00,
2013-04-29 16:49:00,64.8,35.1,29.97,North,351,1.0,4.5,33,0.00,,,-99.99,FreeWX 2.04,2013-04-29 20:49:00,
2013-04-29 16:59:00,64.4,34.7,29.97,North,-999,0.0,4.5,33,0.00,,,-99.99,FreeWX 2.04,2013-04-29 20:59:00,
2013-04-29 17:09:00,64.2,34.5,29.97,North,-999,0.0,4.5,33,0.00,,,-99.99,FreeWX 2.04,2013-04-29 21:09:00,
2013-04-29 17:19:00,64.2,34.5,29.97,North,-999,0.0,0.0,33,0.00,,,-99.99,FreeWX 2.04,2013-04-29 21:19:00,
2013-04-29 17:29:00,64.2,36.0,29.97,North,-999,0.0,0.0,35,0.00,,,-99.99,FreeWX 2.04,2013-04-29 21:29:00,
2013-04-29 17:39:00,64.0,35.8,29.97,North,-999,0.0,0.0,35,0.00,,,-99.99,FreeWX 2.04,2013-04-29 21:39:00,
2013-04-29 17:49:00,63.7,35.6,29.97,North,-999,0.0,0.0,35,0.00,,,-99.99,FreeWX 2.04,2013-04-29 21:49:00,
2013-04-29 17:59:00,63.7,35.6,29.97,North,-999,0.0,0.0,35,0.00,,,-99.99,FreeWX 2.04,2013-04-29 21:59:00,
2013-04-29 18:09:00,63.5,35.4,29.97,North,-999,0.0,0.0,35,0.00,,,-99.99,FreeWX 2.04,2013-04-29 22:09:00,
2013-04-29 18:19:00,63.5,35.4,29.97,North,-999,0.0,0.0,35,0.00,,,-99.99,FreeWX 2.04,2013-04-29 22:19:00,
2013-04-29 18:29:00,63.7,38.8,29.97,North,-999,0.0,0.0,40,0.00,,,-99.99,FreeWX 2.04,2013-04-29 22:29:00,
2013-04-29 18:39:00,63.5,39.4,29.97,North,-999,0.0,0.0,41,0.00,,,-99.99,FreeWX 2.04,2013-04-29 22:39:00,
2013-04-29 18:49:00,63.5,39.4,29.97,North,-999,0.0,0.0,41,0.00,,,-99.99,FreeWX 2.04,2013-04-29 22:49:00,
2013-04-29 18:59:00,63.5,38.7,29.97,North,-999,0.0,0.0,40,0.00,,,-99.99,FreeWX 2.04,2013-04-29 22:59:00,
2013-04-29 19:09:00,63.7,38.8,29.97,North,-999,0.0,0.0,40,0.00,,,-99.99,FreeWX 2.04,2013-04-29 23:09:00,
2013-04-29 19:19:00,63.5,39.4,29.97,North,-999,0.0,0.0,41,0.00,,,-99.99,FreeWX 2.04,2013-04-29 23:19:00,
2013-04-29 19:29:00,63.5,40.6,29.97,North,-999,0.0,0.0,43,0.00,,,-99.99,FreeWX 2.04,2013-04-29 23:29:00,
2013-04-29 19:39:00,63.1,40.8,29.97,North,-999,0.0,0.0,44,0.00,,,-99.99,FreeWX 2.04,2013-04-29 23:39:00,
2013-04-29 19:49:00,63.0,40.6,29.97,North,-999,0.0,0.0,44,0.00,,,-99.99,FreeWX 2.04,2013-04-29 23:49:00,
2013-04-29 19:59:00,62.6,41.0,29.97,North,-999,0.0,0.0,45,0.00,,,-99.99,FreeWX 2.04,2013-04-29 23:59:00,
2013-04-29 20:09:00,62.2,41.2,29.97,North,-999,0.0,0.0,46,0.00,,,-99.99,FreeWX 2.04,2013-04-30 00:09:00,
2013-04-29 20:19:00,61.7,41.2,29.97,North,-999,0.0,0.0,47,0.00,,,-99.99,FreeWX 2.04,2013-04-30 00:19:00,
2013-04-29 20:29:00,61.0,41.7,29.97,North,-999,0.0,0.0,49,0.00,,,-99.99,FreeWX 2.04,2013-04-30 00:29:00,
2013-04-29 20:39:00,60.4,41.2,29.97,North,-999,0.0,0.0,49,0.00,,,-99.99,FreeWX 2.04,2013-04-30 00:39:00,
2013-04-29 20:49:00,59.9,40.1,29.97,North,-999,0.0,0.0,48,0.00,,,-99.99,FreeWX 2.04,2013-04-30 00:49:00,
2013-04-29 20:59:00,59.4,41.2,29.97,North,-999,0.0,0.0,51,0.00,,,-99.99,FreeWX 2.04,2013-04-30 00:59:00,
2013-04-29 21:09:00,58.8,41.2,29.97,North,-999,0.0,0.0,52,0.00,,,-99.99,FreeWX 2.04,2013-04-30 01:09:00,
2013-04-29 21:19:00,58.5,41.9,29.97,North,-999,0.0,0.0,54,0.00,,,-99.99,FreeWX 2.04,2013-04-30 01:19:00,
2013-04-29 21:29:00,58.1,42.1,29.97,North,-999,0.0,0.0,55,0.00,,,-99.99,FreeWX 2.04,2013-04-30 01:29:00,
2013-04-29 21:39:00,57.7,41.2,29.97,North,-999,0.0,0.0,54,0.00,,,-99.99,FreeWX 2.04,2013-04-30 01:39:00,
2013-04-29 21:49:00,57.4,41.4,29.97,North,-999,0.0,0.0,55,0.00,,,-99.99,FreeWX 2.04,2013-04-30 01:49:00,
2013-04-29 21:59:00,57.0,41.0,29.97,North,-999,0.0,0.0,55,0.00,,,-99.99,FreeWX 2.04,2013-04-30 01:59:00,
2013-04-29 22:09:00,56.7,41.2,29.97,North,-999,0.0,0.0,56,0.00,,,-99.99,FreeWX 2.04,2013-04-30 02:09:00,
2013-04-29 22:19:00,56.3,40.8,30.00,North,-999,0.0,0.0,56,0.00,,,-99.99,FreeWX 2.04,2013-04-30 02:19:00,
2013-04-29 22:29:00,56.1,41.2,30.00,North,-999,0.0,0.0,57,0.00,,,-99.99,FreeWX 2.04,2013-04-30 02:29:00,
2013-04-29 22:39:00,55.8,40.8,30.00,North,-999,0.0,0.0,57,0.00,,,-99.99,FreeWX 2.04,2013-04-30 02:39:00,
2013-04-29 22:49:00,55.2,40.3,30.00,North,-999,0.0,0.0,57,0.00,,,-99.99,FreeWX 2.04,2013-04-30 02:49:00,
2013-04-29 22:59:00,55.0,40.1,30.00,North,-999,0.0,0.0,57,0.00,,,-99.99,FreeWX 2.04,2013-04-30 02:59:00,
2013-04-29 23:09:00,54.7,40.3,30.00,North,-999,0.0,0.0,58,0.00,,,-99.99,FreeWX 2.04,2013-04-30 03:09:00,
2013-04-29 23:19:00,54.5,40.1,30.00,North,-999,0.0,0.0,58,0.00,,,-99.99,FreeWX 2.04,2013-04-30 03:19:00,
2013-04-29 23:29:00,54.1,39.7,30.00,North,-999,0.0,0.0,58,0.00,,,-99.99,FreeWX 2.04,2013-04-30 03:29:00,
2013-04-29 23:39:00,53.8,39.4,30.00,North,-999,0.0,0.0,58,0.00,,,-99.99,FreeWX 2.04,2013-04-30 03:39:00,
2013-04-29 23:49:00,53.4,39.4,29.97,North,-999,0.0,0.0,59,0.00,,,-99.99,FreeWX 2.04,2013-04-30 03:49:00,
2013-04-29 23:59:00,53.2,39.2,29.97,North,-999,0.0,0.0,59,0.00,,,-99.99,FreeWX 2.04,2013-04-30 03:59:00,